sensor_id;sensor_type;location;lat;lon;timestamp;P1;durP1;ratioP1;P2;durP2;ratioP2
20482;SDS011;10400;53.198;6.592;2023-07-24T00:02:03;14.25;;;6.13;;
20482;SDS011;10400;53.198;6.592;2023-07-24T00:04:32;10.23;;;5.70;;
20482;SDS011;10400;53.198;6.592;2023-07-24T00:06:59;11.05;;;6.03;;
20482;SDS011;10400;53.198;6.592;2023-07-24T00:09:25;11.23;;;6.25;;
20482;SDS011;10400;53.198;6.592;2023-07-24T00:11:50;13.60;;;6.28;;
20482;SDS011;10400;53.198;6.592;2023-07-24T00:14:18;14.10;;;5.65;;
20482;SDS011;10400;53.198;6.592;2023-07-24T00:16:44;11.05;;;6.13;;
20482;SDS011;10400;53.198;6.592;2023-07-24T00:19:10;12.52;;;5.75;;
20482;SDS011;10400;53.198;6.592;2023-07-24T00:21:36;12.80;;;6.20;;
20482;SDS011;10400;53.198;6.592;2023-07-24T00:24:01;10.38;;;5.57;;
20482;SDS011;10400;53.198;6.592;2023-07-24T00:26:27;13.15;;;6.00;;
20482;SDS011;10400;53.198;6.592;2023-07-24T00:28:53;10.45;;;5.72;;
20482;SDS011;10400;53.198;6.592;2023-07-24T00:31:18;10.38;;;6.10;;
20482;SDS011;10400;53.198;6.592;2023-07-24T00:33:44;10.73;;;6.53;;
20482;SDS011;10400;53.198;6.592;2023-07-24T00:36:10;12.35;;;6.18;;
20482;SDS011;10400;53.198;6.592;2023-07-24T00:38:35;10.05;;;6.43;;
20482;SDS011;10400;53.198;6.592;2023-07-24T00:41:01;10.23;;;6.07;;
20482;SDS011;10400;53.198;6.592;2023-07-24T00:43:27;11.13;;;6.00;;
20482;SDS011;10400;53.198;6.592;2023-07-24T00:45:52;10.80;;;6.07;;
20482;SDS011;10400;53.198;6.592;2023-07-24T00:48:19;15.50;;;6.72;;
20482;SDS011;10400;53.198;6.592;2023-07-24T00:50:46;11.05;;;5.95;;
20482;SDS011;10400;53.198;6.592;2023-07-24T00:53:12;10.88;;;6.75;;
20482;SDS011;10400;53.198;6.592;2023-07-24T00:55:39;11.00;;;6.05;;
20482;SDS011;10400;53.198;6.592;2023-07-24T00:58:05;10.85;;;6.10;;
20482;SDS011;10400;53.198;6.592;2023-07-24T01:00:31;12.75;;;6.85;;
20482;SDS011;10400;53.198;6.592;2023-07-24T01:02:57;10.73;;;6.03;;
20482;SDS011;10400;53.198;6.592;2023-07-24T01:05:25;17.00;;;6.50;;
20482;SDS011;10400;53.198;6.592;2023-07-24T01:07:52;10.85;;;6.32;;
20482;SDS011;10400;53.198;6.592;2023-07-24T01:10:18;14.93;;;6.50;;
20482;SDS011;10400;53.198;6.592;2023-07-24T01:15:38;10.13;;;6.60;;
20482;SDS011;10400;53.198;6.592;2023-07-24T01:18:13;14.40;;;7.63;;
20482;SDS011;10400;53.198;6.592;2023-07-24T01:20:43;15.43;;;7.65;;
20482;SDS011;10400;53.198;6.592;2023-07-24T01:23:14;14.00;;;7.65;;
20482;SDS011;10400;53.198;6.592;2023-07-24T01:26:05;12.23;;;6.82;;
20482;SDS011;10400;53.198;6.592;2023-07-24T01:28:33;11.43;;;7.78;;
20482;SDS011;10400;53.198;6.592;2023-07-24T01:30:58;15.77;;;7.65;;
20482;SDS011;10400;53.198;6.592;2023-07-24T01:33:24;15.02;;;8.05;;
20482;SDS011;10400;53.198;6.592;2023-07-24T01:35:51;14.02;;;8.70;;
20482;SDS011;10400;53.198;6.592;2023-07-24T01:38:19;10.88;;;7.55;;
20482;SDS011;10400;53.198;6.592;2023-07-24T01:40:47;13.52;;;8.70;;
20482;SDS011;10400;53.198;6.592;2023-07-24T01:43:14;16.50;;;9.93;;
20482;SDS011;10400;53.198;6.592;2023-07-24T01:45:39;12.15;;;8.85;;
20482;SDS011;10400;53.198;6.592;2023-07-24T01:48:05;15.10;;;9.25;;
20482;SDS011;10400;53.198;6.592;2023-07-24T01:50:31;16.63;;;10.07;;
20482;SDS011;10400;53.198;6.592;2023-07-24T01:52:57;17.27;;;10.57;;
20482;SDS011;10400;53.198;6.592;2023-07-24T01:55:23;16.58;;;10.77;;
20482;SDS011;10400;53.198;6.592;2023-07-24T01:57:49;18.55;;;10.93;;
20482;SDS011;10400;53.198;6.592;2023-07-24T02:00:15;13.68;;;10.32;;
20482;SDS011;10400;53.198;6.592;2023-07-24T02:02:40;14.85;;;11.15;;
20482;SDS011;10400;53.198;6.592;2023-07-24T02:05:06;14.25;;;11.30;;
20482;SDS011;10400;53.198;6.592;2023-07-24T02:07:32;22.27;;;11.27;;
20482;SDS011;10400;53.198;6.592;2023-07-24T02:09:58;16.48;;;11.70;;
20482;SDS011;10400;53.198;6.592;2023-07-24T02:12:23;19.35;;;11.50;;
20482;SDS011;10400;53.198;6.592;2023-07-24T02:14:49;17.60;;;11.50;;
20482;SDS011;10400;53.198;6.592;2023-07-24T02:17:16;16.63;;;11.52;;
20482;SDS011;10400;53.198;6.592;2023-07-24T02:19:43;14.40;;;11.13;;
20482;SDS011;10400;53.198;6.592;2023-07-24T02:22:09;17.38;;;11.02;;
20482;SDS011;10400;53.198;6.592;2023-07-24T02:24:35;15.18;;;11.35;;
20482;SDS011;10400;53.198;6.592;2023-07-24T02:27:00;13.60;;;11.23;;
20482;SDS011;10400;53.198;6.592;2023-07-24T02:29:26;15.55;;;11.70;;
20482;SDS011;10400;53.198;6.592;2023-07-24T02:31:53;14.50;;;12.18;;
20482;SDS011;10400;53.198;6.592;2023-07-24T02:34:19;15.75;;;11.50;;
20482;SDS011;10400;53.198;6.592;2023-07-24T02:36:49;13.98;;;11.05;;
20482;SDS011;10400;53.198;6.592;2023-07-24T02:39:15;14.75;;;11.43;;
20482;SDS011;10400;53.198;6.592;2023-07-24T02:41:41;14.13;;;10.65;;
20482;SDS011;10400;53.198;6.592;2023-07-24T02:44:06;15.43;;;12.05;;
20482;SDS011;10400;53.198;6.592;2023-07-24T02:46:32;17.17;;;12.40;;
20482;SDS011;10400;53.198;6.592;2023-07-24T02:48:57;13.60;;;10.93;;
20482;SDS011;10400;53.198;6.592;2023-07-24T02:51:23;18.60;;;11.32;;
20482;SDS011;10400;53.198;6.592;2023-07-24T02:53:49;13.77;;;10.57;;
20482;SDS011;10400;53.198;6.592;2023-07-24T02:56:15;13.32;;;10.05;;
20482;SDS011;10400;53.198;6.592;2023-07-24T02:58:40;16.20;;;10.32;;
20482;SDS011;10400;53.198;6.592;2023-07-24T03:01:06;19.27;;;11.07;;
20482;SDS011;10400;53.198;6.592;2023-07-24T03:03:35;13.73;;;10.35;;
20482;SDS011;10400;53.198;6.592;2023-07-24T03:06:01;13.32;;;10.13;;
20482;SDS011;10400;53.198;6.592;2023-07-24T03:08:27;15.90;;;9.93;;
20482;SDS011;10400;53.198;6.592;2023-07-24T03:10:53;16.27;;;9.93;;
20482;SDS011;10400;53.198;6.592;2023-07-24T03:13:18;14.85;;;9.73;;
20482;SDS011;10400;53.198;6.592;2023-07-24T03:15:51;13.48;;;9.70;;
20482;SDS011;10400;53.198;6.592;2023-07-24T03:18:17;13.25;;;9.20;;
20482;SDS011;10400;53.198;6.592;2023-07-24T03:20:43;13.82;;;9.77;;
20482;SDS011;10400;53.198;6.592;2023-07-24T03:23:09;15.95;;;9.60;;
20482;SDS011;10400;53.198;6.592;2023-07-24T03:25:34;12.38;;;9.50;;
20482;SDS011;10400;53.198;6.592;2023-07-24T03:28:00;14.88;;;9.32;;
20482;SDS011;10400;53.198;6.592;2023-07-24T03:30:28;13.35;;;9.07;;
20482;SDS011;10400;53.198;6.592;2023-07-24T03:32:54;15.05;;;9.73;;
20482;SDS011;10400;53.198;6.592;2023-07-24T03:35:20;13.05;;;9.40;;
20482;SDS011;10400;53.198;6.592;2023-07-24T03:37:45;15.90;;;9.35;;
20482;SDS011;10400;53.198;6.592;2023-07-24T03:40:11;13.57;;;9.25;;
20482;SDS011;10400;53.198;6.592;2023-07-24T03:42:37;13.48;;;9.30;;
20482;SDS011;10400;53.198;6.592;2023-07-24T03:45:03;15.35;;;9.02;;
20482;SDS011;10400;53.198;6.592;2023-07-24T03:47:29;16.33;;;9.30;;
20482;SDS011;10400;53.198;6.592;2023-07-24T03:49:55;13.85;;;8.10;;
20482;SDS011;10400;53.198;6.592;2023-07-24T03:52:21;13.93;;;8.77;;
20482;SDS011;10400;53.198;6.592;2023-07-24T03:54:46;13.63;;;8.93;;
20482;SDS011;10400;53.198;6.592;2023-07-24T03:57:12;12.65;;;8.15;;
20482;SDS011;10400;53.198;6.592;2023-07-24T03:59:37;11.95;;;7.95;;
20482;SDS011;10400;53.198;6.592;2023-07-24T04:02:03;11.63;;;8.07;;
20482;SDS011;10400;53.198;6.592;2023-07-24T04:04:29;9.95;;;7.13;;
20482;SDS011;10400;53.198;6.592;2023-07-24T04:06:56;13.52;;;8.27;;
20482;SDS011;10400;53.198;6.592;2023-07-24T04:09:21;13.00;;;8.45;;
20482;SDS011;10400;53.198;6.592;2023-07-24T04:11:47;11.07;;;7.80;;
20482;SDS011;10400;53.198;6.592;2023-07-24T04:14:13;15.13;;;8.35;;
20482;SDS011;10400;53.198;6.592;2023-07-24T04:16:38;11.98;;;7.97;;
20482;SDS011;10400;53.198;6.592;2023-07-24T04:19:04;11.38;;;7.40;;
20482;SDS011;10400;53.198;6.592;2023-07-24T04:21:30;13.95;;;8.63;;
20482;SDS011;10400;53.198;6.592;2023-07-24T04:23:56;15.75;;;8.82;;
20482;SDS011;10400;53.198;6.592;2023-07-24T04:26:21;10.95;;;7.72;;
20482;SDS011;10400;53.198;6.592;2023-07-24T04:28:47;10.85;;;7.43;;
20482;SDS011;10400;53.198;6.592;2023-07-24T04:31:13;10.82;;;7.82;;
20482;SDS011;10400;53.198;6.592;2023-07-24T04:33:39;13.38;;;8.15;;
20482;SDS011;10400;53.198;6.592;2023-07-24T04:36:07;10.57;;;8.13;;
20482;SDS011;10400;53.198;6.592;2023-07-24T04:38:32;11.25;;;8.18;;
20482;SDS011;10400;53.198;6.592;2023-07-24T04:41:01;14.27;;;9.45;;
20482;SDS011;10400;53.198;6.592;2023-07-24T04:43:27;13.13;;;9.45;;
20482;SDS011;10400;53.198;6.592;2023-07-24T04:45:53;12.23;;;9.18;;
20482;SDS011;10400;53.198;6.592;2023-07-24T04:48:19;12.23;;;9.35;;
20482;SDS011;10400;53.198;6.592;2023-07-24T04:50:45;11.00;;;8.90;;
20482;SDS011;10400;53.198;6.592;2023-07-24T04:53:10;11.95;;;9.02;;
20482;SDS011;10400;53.198;6.592;2023-07-24T04:55:36;14.45;;;9.38;;
20482;SDS011;10400;53.198;6.592;2023-07-24T04:58:02;11.88;;;8.43;;
20482;SDS011;10400;53.198;6.592;2023-07-24T05:00:27;10.38;;;8.98;;
20482;SDS011;10400;53.198;6.592;2023-07-24T05:02:53;15.73;;;8.95;;
20482;SDS011;10400;53.198;6.592;2023-07-24T05:05:18;9.88;;;8.88;;
20482;SDS011;10400;53.198;6.592;2023-07-24T05:07:44;12.00;;;9.45;;
20482;SDS011;10400;53.198;6.592;2023-07-24T05:10:10;11.48;;;8.90;;
20482;SDS011;10400;53.198;6.592;2023-07-24T05:12:36;13.07;;;9.77;;
20482;SDS011;10400;53.198;6.592;2023-07-24T05:15:02;11.70;;;9.45;;
20482;SDS011;10400;53.198;6.592;2023-07-24T05:17:27;14.65;;;9.13;;
20482;SDS011;10400;53.198;6.592;2023-07-24T05:19:53;12.60;;;9.05;;
20482;SDS011;10400;53.198;6.592;2023-07-24T05:22:19;13.55;;;10.00;;
20482;SDS011;10400;53.198;6.592;2023-07-24T05:24:44;12.35;;;9.68;;
20482;SDS011;10400;53.198;6.592;2023-07-24T05:27:10;12.48;;;9.52;;
20482;SDS011;10400;53.198;6.592;2023-07-24T05:29:37;12.80;;;8.70;;
20482;SDS011;10400;53.198;6.592;2023-07-24T05:32:03;11.82;;;9.50;;
20482;SDS011;10400;53.198;6.592;2023-07-24T05:34:29;12.10;;;8.52;;
20482;SDS011;10400;53.198;6.592;2023-07-24T05:36:54;13.75;;;9.05;;
20482;SDS011;10400;53.198;6.592;2023-07-24T05:39:20;13.75;;;9.25;;
20482;SDS011;10400;53.198;6.592;2023-07-24T05:41:47;13.38;;;9.57;;
20482;SDS011;10400;53.198;6.592;2023-07-24T05:44:13;11.57;;;8.43;;
20482;SDS011;10400;53.198;6.592;2023-07-24T05:46:39;13.40;;;8.90;;
20482;SDS011;10400;53.198;6.592;2023-07-24T05:49:04;11.30;;;9.20;;
20482;SDS011;10400;53.198;6.592;2023-07-24T05:51:30;12.90;;;9.23;;
20482;SDS011;10400;53.198;6.592;2023-07-24T05:53:56;11.75;;;8.82;;
20482;SDS011;10400;53.198;6.592;2023-07-24T05:56:22;13.60;;;9.82;;
20482;SDS011;10400;53.198;6.592;2023-07-24T05:58:47;15.98;;;9.60;;
20482;SDS011;10400;53.198;6.592;2023-07-24T06:01:14;12.52;;;8.93;;
20482;SDS011;10400;53.198;6.592;2023-07-24T06:03:39;16.10;;;8.98;;
20482;SDS011;10400;53.198;6.592;2023-07-24T06:06:05;12.80;;;9.13;;
20482;SDS011;10400;53.198;6.592;2023-07-24T06:08:31;13.23;;;9.25;;
20482;SDS011;10400;53.198;6.592;2023-07-24T06:10:56;14.00;;;9.43;;
20482;SDS011;10400;53.198;6.592;2023-07-24T06:13:25;16.30;;;9.00;;
20482;SDS011;10400;53.198;6.592;2023-07-24T06:15:51;16.08;;;9.93;;
20482;SDS011;10400;53.198;6.592;2023-07-24T06:18:17;13.73;;;9.82;;
20482;SDS011;10400;53.198;6.592;2023-07-24T06:20:43;12.45;;;9.57;;
20482;SDS011;10400;53.198;6.592;2023-07-24T06:23:09;13.18;;;8.73;;
20482;SDS011;10400;53.198;6.592;2023-07-24T06:25:34;11.55;;;8.27;;
20482;SDS011;10400;53.198;6.592;2023-07-24T06:28:00;14.25;;;8.50;;
20482;SDS011;10400;53.198;6.592;2023-07-24T06:30:26;10.57;;;7.65;;
20482;SDS011;10400;53.198;6.592;2023-07-24T06:32:51;11.38;;;8.73;;
20482;SDS011;10400;53.198;6.592;2023-07-24T06:35:17;10.85;;;8.05;;
20482;SDS011;10400;53.198;6.592;2023-07-24T06:37:43;14.40;;;8.85;;
20482;SDS011;10400;53.198;6.592;2023-07-24T06:40:09;12.93;;;7.68;;
20482;SDS011;10400;53.198;6.592;2023-07-24T06:42:35;12.77;;;8.27;;
20482;SDS011;10400;53.198;6.592;2023-07-24T06:45:01;16.70;;;9.13;;
20482;SDS011;10400;53.198;6.592;2023-07-24T06:47:27;14.15;;;8.77;;
20482;SDS011;10400;53.198;6.592;2023-07-24T06:49:53;11.43;;;8.40;;
20482;SDS011;10400;53.198;6.592;2023-07-24T06:52:18;12.88;;;8.68;;
20482;SDS011;10400;53.198;6.592;2023-07-24T06:54:44;14.50;;;8.40;;
20482;SDS011;10400;53.198;6.592;2023-07-24T06:57:10;15.65;;;8.57;;
20482;SDS011;10400;53.198;6.592;2023-07-24T06:59:35;10.95;;;8.07;;
20482;SDS011;10400;53.198;6.592;2023-07-24T07:02:01;16.55;;;8.52;;
20482;SDS011;10400;53.198;6.592;2023-07-24T07:04:26;9.10;;;7.78;;
20482;SDS011;10400;53.198;6.592;2023-07-24T07:06:52;11.38;;;8.43;;
20482;SDS011;10400;53.198;6.592;2023-07-24T07:09:21;12.15;;;8.52;;
20482;SDS011;10400;53.198;6.592;2023-07-24T07:11:46;12.57;;;8.25;;
20482;SDS011;10400;53.198;6.592;2023-07-24T07:14:13;13.63;;;8.45;;
20482;SDS011;10400;53.198;6.592;2023-07-24T07:16:42;12.43;;;8.38;;
20482;SDS011;10400;53.198;6.592;2023-07-24T07:19:09;13.45;;;8.20;;
20482;SDS011;10400;53.198;6.592;2023-07-24T07:21:38;12.98;;;8.07;;
20482;SDS011;10400;53.198;6.592;2023-07-24T07:24:04;16.10;;;8.57;;
20482;SDS011;10400;53.198;6.592;2023-07-24T07:26:29;12.43;;;8.30;;
20482;SDS011;10400;53.198;6.592;2023-07-24T07:28:55;12.45;;;8.07;;
20482;SDS011;10400;53.198;6.592;2023-07-24T07:31:21;16.02;;;8.82;;
20482;SDS011;10400;53.198;6.592;2023-07-24T07:33:47;15.95;;;8.38;;
20482;SDS011;10400;53.198;6.592;2023-07-24T07:36:13;13.65;;;8.35;;
20482;SDS011;10400;53.198;6.592;2023-07-24T07:38:39;13.75;;;8.52;;
20482;SDS011;10400;53.198;6.592;2023-07-24T07:41:05;16.77;;;8.15;;
20482;SDS011;10400;53.198;6.592;2023-07-24T07:43:31;15.02;;;8.63;;
20482;SDS011;10400;53.198;6.592;2023-07-24T07:45:57;11.90;;;8.20;;
20482;SDS011;10400;53.198;6.592;2023-07-24T07:48:24;14.48;;;8.32;;
20482;SDS011;10400;53.198;6.592;2023-07-24T07:50:53;13.13;;;7.75;;
20482;SDS011;10400;53.198;6.592;2023-07-24T07:53:19;12.93;;;8.00;;
20482;SDS011;10400;53.198;6.592;2023-07-24T07:55:44;12.80;;;8.18;;
20482;SDS011;10400;53.198;6.592;2023-07-24T07:58:13;15.15;;;8.52;;
20482;SDS011;10400;53.198;6.592;2023-07-24T08:00:39;17.25;;;8.07;;
20482;SDS011;10400;53.198;6.592;2023-07-24T08:03:05;11.10;;;7.30;;
20482;SDS011;10400;53.198;6.592;2023-07-24T08:05:31;13.40;;;7.20;;
20482;SDS011;10400;53.198;6.592;2023-07-24T08:07:57;21.02;;;8.45;;
20482;SDS011;10400;53.198;6.592;2023-07-24T08:10:23;17.52;;;7.88;;
20482;SDS011;10400;53.198;6.592;2023-07-24T08:12:49;15.15;;;7.63;;
20482;SDS011;10400;53.198;6.592;2023-07-24T08:15:14;12.95;;;7.18;;
20482;SDS011;10400;53.198;6.592;2023-07-24T08:17:40;13.82;;;7.88;;
20482;SDS011;10400;53.198;6.592;2023-07-24T08:20:06;13.52;;;6.68;;
20482;SDS011;10400;53.198;6.592;2023-07-24T08:22:32;33.15;;;9.52;;
20482;SDS011;10400;53.198;6.592;2023-07-24T08:25:00;12.90;;;7.53;;
20482;SDS011;10400;53.198;6.592;2023-07-24T08:27:26;13.88;;;7.35;;
20482;SDS011;10400;53.198;6.592;2023-07-24T08:29:54;15.77;;;7.25;;
20482;SDS011;10400;53.198;6.592;2023-07-24T08:32:20;10.93;;;6.75;;
20482;SDS011;10400;53.198;6.592;2023-07-24T08:34:46;13.40;;;6.60;;
20482;SDS011;10400;53.198;6.592;2023-07-24T08:37:12;12.73;;;7.03;;
20482;SDS011;10400;53.198;6.592;2023-07-24T08:39:38;15.88;;;7.65;;
20482;SDS011;10400;53.198;6.592;2023-07-24T08:42:13;13.73;;;7.00;;
20482;SDS011;10400;53.198;6.592;2023-07-24T08:44:39;25.65;;;8.27;;
20482;SDS011;10400;53.198;6.592;2023-07-24T08:47:06;14.68;;;7.90;;
20482;SDS011;10400;53.198;6.592;2023-07-24T08:49:38;14.70;;;7.55;;
20482;SDS011;10400;53.198;6.592;2023-07-24T08:52:07;16.75;;;7.70;;
20482;SDS011;10400;53.198;6.592;2023-07-24T08:54:37;20.08;;;8.48;;
20482;SDS011;10400;53.198;6.592;2023-07-24T08:57:07;16.42;;;7.38;;
20482;SDS011;10400;53.198;6.592;2023-07-24T08:59:33;18.35;;;8.05;;
20482;SDS011;10400;53.198;6.592;2023-07-24T09:01:59;13.48;;;7.75;;
20482;SDS011;10400;53.198;6.592;2023-07-24T09:04:34;14.98;;;7.70;;
20482;SDS011;10400;53.198;6.592;2023-07-24T09:07:01;11.93;;;7.57;;
20482;SDS011;10400;53.198;6.592;2023-07-24T09:09:30;20.75;;;8.35;;
20482;SDS011;10400;53.198;6.592;2023-07-24T09:11:58;15.07;;;7.80;;
20482;SDS011;10400;53.198;6.592;2023-07-24T09:14:28;18.50;;;8.32;;
20482;SDS011;10400;53.198;6.592;2023-07-24T09:17:03;16.05;;;8.00;;
20482;SDS011;10400;53.198;6.592;2023-07-24T09:19:30;17.67;;;9.10;;
20482;SDS011;10400;53.198;6.592;2023-07-24T09:21:56;14.35;;;7.70;;
20482;SDS011;10400;53.198;6.592;2023-07-24T09:24:33;17.50;;;7.95;;
20482;SDS011;10400;53.198;6.592;2023-07-24T09:26:59;12.45;;;7.45;;
20482;SDS011;10400;53.198;6.592;2023-07-24T09:29:31;15.65;;;8.32;;
20482;SDS011;10400;53.198;6.592;2023-07-24T09:31:58;15.82;;;7.90;;
20482;SDS011;10400;53.198;6.592;2023-07-24T09:34:24;14.05;;;8.20;;
20482;SDS011;10400;53.198;6.592;2023-07-24T09:36:53;16.25;;;8.45;;
20482;SDS011;10400;53.198;6.592;2023-07-24T09:39:23;17.05;;;8.80;;
20482;SDS011;10400;53.198;6.592;2023-07-24T09:41:52;14.10;;;7.75;;
20482;SDS011;10400;53.198;6.592;2023-07-24T09:44:18;12.88;;;7.22;;
20482;SDS011;10400;53.198;6.592;2023-07-24T09:46:44;13.52;;;7.45;;
20482;SDS011;10400;53.198;6.592;2023-07-24T09:49:09;15.13;;;7.40;;
20482;SDS011;10400;53.198;6.592;2023-07-24T09:51:35;13.30;;;6.97;;
20482;SDS011;10400;53.198;6.592;2023-07-24T09:54:06;11.88;;;6.30;;
20482;SDS011;10400;53.198;6.592;2023-07-24T09:56:40;13.32;;;6.55;;
20482;SDS011;10400;53.198;6.592;2023-07-24T09:59:07;11.07;;;6.57;;
20482;SDS011;10400;53.198;6.592;2023-07-24T10:01:35;12.43;;;6.88;;
20482;SDS011;10400;53.198;6.592;2023-07-24T10:04:02;11.38;;;6.40;;
20482;SDS011;10400;53.198;6.592;2023-07-24T10:06:30;13.90;;;6.60;;
20482;SDS011;10400;53.198;6.592;2023-07-24T10:08:57;12.98;;;6.90;;
20482;SDS011;10400;53.198;6.592;2023-07-24T10:11:23;10.77;;;7.03;;
20482;SDS011;10400;53.198;6.592;2023-07-24T10:13:50;12.82;;;7.80;;
20482;SDS011;10400;53.198;6.592;2023-07-24T10:16:17;14.95;;;7.28;;
20482;SDS011;10400;53.198;6.592;2023-07-24T10:18:43;14.82;;;7.40;;
20482;SDS011;10400;53.198;6.592;2023-07-24T10:21:10;13.23;;;7.28;;
20482;SDS011;10400;53.198;6.592;2023-07-24T10:23:37;10.63;;;7.55;;
20482;SDS011;10400;53.198;6.592;2023-07-24T10:26:10;11.35;;;6.65;;
20482;SDS011;10400;53.198;6.592;2023-07-24T10:28:37;8.98;;;5.97;;
20482;SDS011;10400;53.198;6.592;2023-07-24T10:31:23;12.43;;;6.32;;
20482;SDS011;10400;53.198;6.592;2023-07-24T10:33:54;10.75;;;6.13;;
20482;SDS011;10400;53.198;6.592;2023-07-24T10:36:21;9.85;;;5.20;;
20482;SDS011;10400;53.198;6.592;2023-07-24T10:38:53;11.32;;;6.60;;
20482;SDS011;10400;53.198;6.592;2023-07-24T10:41:20;10.48;;;6.80;;
20482;SDS011;10400;53.198;6.592;2023-07-24T10:43:52;9.27;;;6.47;;
20482;SDS011;10400;53.198;6.592;2023-07-24T10:46:23;11.48;;;5.70;;
20482;SDS011;10400;53.198;6.592;2023-07-24T10:49:07;10.57;;;5.70;;
20482;SDS011;10400;53.198;6.592;2023-07-24T10:51:33;11.63;;;5.97;;
20482;SDS011;10400;53.198;6.592;2023-07-24T10:54:02;14.25;;;5.78;;
20482;SDS011;10400;53.198;6.592;2023-07-24T10:56:29;10.07;;;6.60;;
20482;SDS011;10400;53.198;6.592;2023-07-24T10:58:55;13.85;;;6.05;;
20482;SDS011;10400;53.198;6.592;2023-07-24T11:01:21;9.20;;;5.35;;
20482;SDS011;10400;53.198;6.592;2023-07-24T11:03:48;13.35;;;6.40;;
20482;SDS011;10400;53.198;6.592;2023-07-24T11:06:16;9.18;;;4.80;;
20482;SDS011;10400;53.198;6.592;2023-07-24T11:08:50;8.52;;;5.10;;
20482;SDS011;10400;53.198;6.592;2023-07-24T11:11:31;9.98;;;4.80;;
20482;SDS011;10400;53.198;6.592;2023-07-24T11:14:00;8.77;;;4.72;;
20482;SDS011;10400;53.198;6.592;2023-07-24T11:16:27;8.10;;;4.90;;
20482;SDS011;10400;53.198;6.592;2023-07-24T11:18:55;11.10;;;4.65;;
20482;SDS011;10400;53.198;6.592;2023-07-24T11:21:24;13.05;;;5.38;;
20482;SDS011;10400;53.198;6.592;2023-07-24T11:23:50;6.53;;;4.07;;
20482;SDS011;10400;53.198;6.592;2023-07-24T11:26:18;8.23;;;4.43;;
20482;SDS011;10400;53.198;6.592;2023-07-24T11:28:45;11.95;;;4.38;;
20482;SDS011;10400;53.198;6.592;2023-07-24T11:31:11;8.98;;;5.10;;
20482;SDS011;10400;53.198;6.592;2023-07-24T11:33:37;8.95;;;4.40;;
20482;SDS011;10400;53.198;6.592;2023-07-24T11:36:04;7.80;;;4.90;;
20482;SDS011;10400;53.198;6.592;2023-07-24T11:38:30;7.85;;;5.03;;
20482;SDS011;10400;53.198;6.592;2023-07-24T11:40:56;8.80;;;4.70;;
20482;SDS011;10400;53.198;6.592;2023-07-24T11:43:23;8.93;;;4.75;;
20482;SDS011;10400;53.198;6.592;2023-07-24T11:45:50;9.65;;;5.90;;
20482;SDS011;10400;53.198;6.592;2023-07-24T11:48:17;8.90;;;5.22;;
20482;SDS011;10400;53.198;6.592;2023-07-24T11:50:45;9.90;;;5.47;;
20482;SDS011;10400;53.198;6.592;2023-07-24T11:55:49;7.90;;;4.93;;
20482;SDS011;10400;53.198;6.592;2023-07-24T11:58:16;7.13;;;4.50;;
20482;SDS011;10400;53.198;6.592;2023-07-24T12:00:43;11.93;;;4.70;;
20482;SDS011;10400;53.198;6.592;2023-07-24T12:03:10;6.88;;;4.75;;
20482;SDS011;10400;53.198;6.592;2023-07-24T12:05:39;7.57;;;4.30;;
20482;SDS011;10400;53.198;6.592;2023-07-24T12:08:08;15.93;;;4.90;;
20482;SDS011;10400;53.198;6.592;2023-07-24T12:10:36;8.23;;;4.50;;
20482;SDS011;10400;53.198;6.592;2023-07-24T12:13:03;8.02;;;4.68;;
20482;SDS011;10400;53.198;6.592;2023-07-24T12:15:30;9.93;;;4.75;;
20482;SDS011;10400;53.198;6.592;2023-07-24T12:17:56;8.88;;;5.00;;
20482;SDS011;10400;53.198;6.592;2023-07-24T12:20:22;8.13;;;4.88;;
20482;SDS011;10400;53.198;6.592;2023-07-24T12:22:48;8.35;;;4.50;;
20482;SDS011;10400;53.198;6.592;2023-07-24T12:25:14;7.40;;;4.65;;
20482;SDS011;10400;53.198;6.592;2023-07-24T12:27:44;8.02;;;4.78;;
20482;SDS011;10400;53.198;6.592;2023-07-24T12:30:10;6.47;;;4.07;;
20482;SDS011;10400;53.198;6.592;2023-07-24T12:32:39;6.15;;;3.70;;
20482;SDS011;10400;53.198;6.592;2023-07-24T12:35:05;8.05;;;3.75;;
20482;SDS011;10400;53.198;6.592;2023-07-24T12:37:32;9.63;;;4.45;;
20482;SDS011;10400;53.198;6.592;2023-07-24T12:39:57;7.18;;;4.20;;
20482;SDS011;10400;53.198;6.592;2023-07-24T12:42:26;7.97;;;5.13;;
20482;SDS011;10400;53.198;6.592;2023-07-24T12:44:51;10.30;;;5.90;;
20482;SDS011;10400;53.198;6.592;2023-07-24T12:47:17;12.40;;;5.32;;
20482;SDS011;10400;53.198;6.592;2023-07-24T12:49:43;7.93;;;5.75;;
20482;SDS011;10400;53.198;6.592;2023-07-24T12:52:09;10.27;;;6.38;;
20482;SDS011;10400;53.198;6.592;2023-07-24T12:54:36;11.35;;;6.60;;
20482;SDS011;10400;53.198;6.592;2023-07-24T12:57:01;13.18;;;7.32;;
20482;SDS011;10400;53.198;6.592;2023-07-24T12:59:28;14.27;;;7.70;;
20482;SDS011;10400;53.198;6.592;2023-07-24T13:01:54;9.73;;;6.30;;
20482;SDS011;10400;53.198;6.592;2023-07-24T13:04:20;11.13;;;6.53;;
20482;SDS011;10400;53.198;6.592;2023-07-24T13:06:47;7.65;;;5.00;;
20482;SDS011;10400;53.198;6.592;2023-07-24T13:09:13;5.40;;;4.28;;
20482;SDS011;10400;53.198;6.592;2023-07-24T13:11:38;7.78;;;4.40;;
20482;SDS011;10400;53.198;6.592;2023-07-24T13:14:04;6.32;;;4.00;;
20482;SDS011;10400;53.198;6.592;2023-07-24T13:16:30;6.90;;;4.85;;
20482;SDS011;10400;53.198;6.592;2023-07-24T13:18:55;6.20;;;4.55;;
20482;SDS011;10400;53.198;6.592;2023-07-24T13:21:21;5.20;;;4.13;;
20482;SDS011;10400;53.198;6.592;2023-07-24T13:23:47;6.22;;;4.47;;
20482;SDS011;10400;53.198;6.592;2023-07-24T13:26:12;7.47;;;5.13;;
20482;SDS011;10400;53.198;6.592;2023-07-24T13:28:41;7.22;;;4.75;;
20482;SDS011;10400;53.198;6.592;2023-07-24T13:31:14;7.22;;;4.75;;
20482;SDS011;10400;53.198;6.592;2023-07-24T13:33:40;7.53;;;4.68;;
20482;SDS011;10400;53.198;6.592;2023-07-24T13:36:06;6.60;;;4.50;;
20482;SDS011;10400;53.198;6.592;2023-07-24T13:38:32;9.57;;;4.20;;
20482;SDS011;10400;53.198;6.592;2023-07-24T13:40:57;7.07;;;3.90;;
20482;SDS011;10400;53.198;6.592;2023-07-24T13:43:23;5.18;;;4.03;;
20482;SDS011;10400;53.198;6.592;2023-07-24T13:45:49;4.10;;;3.17;;
20482;SDS011;10400;53.198;6.592;2023-07-24T13:48:15;4.60;;;2.67;;
20482;SDS011;10400;53.198;6.592;2023-07-24T13:50:40;3.47;;;2.35;;
20482;SDS011;10400;53.198;6.592;2023-07-24T13:53:06;6.55;;;2.22;;
20482;SDS011;10400;53.198;6.592;2023-07-24T13:55:31;5.20;;;2.10;;
20482;SDS011;10400;53.198;6.592;2023-07-24T13:57:57;6.95;;;2.47;;
20482;SDS011;10400;53.198;6.592;2023-07-24T14:00:23;7.47;;;2.30;;
20482;SDS011;10400;53.198;6.592;2023-07-24T14:02:51;5.55;;;2.28;;
20482;SDS011;10400;53.198;6.592;2023-07-24T14:05:17;5.30;;;2.15;;
20482;SDS011;10400;53.198;6.592;2023-07-24T14:07:43;5.38;;;1.70;;
20482;SDS011;10400;53.198;6.592;2023-07-24T14:10:09;6.93;;;2.15;;
20482;SDS011;10400;53.198;6.592;2023-07-24T14:12:35;8.13;;;2.15;;
20482;SDS011;10400;53.198;6.592;2023-07-24T14:15:01;7.05;;;2.35;;
20482;SDS011;10400;53.198;6.592;2023-07-24T14:17:27;3.95;;;1.90;;
20482;SDS011;10400;53.198;6.592;2023-07-24T14:19:53;7.80;;;2.28;;
20482;SDS011;10400;53.198;6.592;2023-07-24T14:22:19;8.35;;;2.70;;
20482;SDS011;10400;53.198;6.592;2023-07-24T14:24:44;9.95;;;2.88;;
20482;SDS011;10400;53.198;6.592;2023-07-24T14:27:11;12.10;;;3.08;;
20482;SDS011;10400;53.198;6.592;2023-07-24T14:29:37;9.98;;;3.13;;
20482;SDS011;10400;53.198;6.592;2023-07-24T14:32:03;9.27;;;3.05;;
20482;SDS011;10400;53.198;6.592;2023-07-24T14:34:30;9.05;;;2.90;;
20482;SDS011;10400;53.198;6.592;2023-07-24T14:37:03;14.38;;;2.40;;
20482;SDS011;10400;53.198;6.592;2023-07-24T14:39:58;12.80;;;2.95;;